Terminal Aerodrome Forecast
Issued by NWS

Home | Current Version | Previous Version | Text Only | Print | Product List | Glossary On
Versions: 1 2 3 4 5 6 7 8 9 10 11 12 13 14 15 16 17 18 19 20 21
269
FTUS46 KPDT 181900 AAA
TAFRDM
TAF AMD
KRDM 181900Z 1819/1918 26014G22KT 6SM -SHSN SCT035 BKN040 OVC050
      TEMPO 1819/1821 1SM -SHSN BKN020 BKN028 OVC035
     FM182100 27015G24KT P6SM SCT040 BKN070
     FM182300 28012G20KT P6SM VCSH SCT030 OVC050
     FM190300 30010KT 1SM -SN BR BKN005 OVC010
     FM191200 35005KT P6SM SCT040 BKN050=

USA.gov is the U.S. government's official web portal to all federal, state and local government web resources and services.